Calumet — WDE3568 — position and weather

sailwx.info

Track history (hours):
 
Tides and Currents Weather Stations Pressure Air Temp Water Temp Dewpoint Dewpoint Depression Visibility Wind Speed Wind Dir Waves Ship Positions

Calumet

Owner: Grand River Navigation Company, Traverse City, MI. More information available from US FCC via Universal Licensing System and Coast Guard Vessel Documentation Center.

Last reported at 2017-Jul-23 00:20 UTC. Time now 2017-Jul-25 10:37 UTC.
Position N 45°24' W 083°29'.

Length 192 m; draft 25.5 m.

Type: Cargo ship. MMSI: 367132630.

Date/timePositionNaut miles runAvg speedWind from/ knotsBaromVisibWave heightAir tempDewpointWater temp
2017-Jul-23 00:20N 45°24' W 083°29'412.0
2017-Jul-23 00:00N 45°26' W 083°34'612.0
2017-Jul-22 23:30N 45°28' W 083°42'611.8
2017-Jul-22 23:00N 45°31' W 083°50'611.8
2017-Jul-22 22:28N 45°34' W 083°58'611.8
2017-Jul-22 21:58N 45°37' W 084°05'611.8
2017-Jul-22 21:28N 45°39' W 084°13'510.9
2017-Jul-22 21:00N 45°41' W 084°20'611.5
2017-Jul-22 20:29N 45°42' W 084°28'511.6
2017-Jul-22 20:00N 45°45' W 084°35'611.8
2017-Jul-22 19:30N 45°48' W 084°42'611.6
2017-Jul-22 19:00N 45°50' W 084°50'611.7
2017-Jul-22 18:30N 45°50' W 084°58'611.9
2017-Jul-22 18:00N 45°51' W 085°06'611.8
2017-Jul-22 17:29N 45°52' W 085°15'611.8
2017-Jul-22 16:59N 45°53' W 085°24'811.8
2017-Jul-22 16:19N 45°54' W 085°35'2782.2
2017-Jul-22 16:00N 45°30' W 085°18'3459.9 060 / 51012.5 20.5
2017-Jul-22 15:26N 45°56' W 085°50'3 6.3
2017-Jul-22 15:00N 45°57' W 085°53'1 0.8
2017-Jul-22 14:00N 45°58' W 085°52'0 0.0
2017-Jul-22 13:30N 45°58' W 085°52'0 0.0
2017-Jul-22 12:59N 45°58' W 085°52'0 0.0
2017-Jul-22 12:26N 45°58' W 085°52'0 0.0
2017-Jul-22 12:00N 45°58' W 085°52'0 0.1
2017-Jul-22 11:30N 45°58' W 085°52'0 0.0
2017-Jul-22 11:00N 45°58' W 085°52'0 0.0
2017-Jul-22 10:20N 45°58' W 085°52'0 0.0
2017-Jul-22 09:53N 45°58' W 085°52'0 0.0
2017-Jul-22 09:30N 45°58' W 085°52'0 0.0
2017-Jul-22 09:00N 45°58' W 085°52'0 0.0
2017-Jul-22 08:30N 45°58' W 085°52'0 0.0
2017-Jul-22 08:00N 45°58' W 085°52'0 0.0
2017-Jul-22 07:30N 45°58' W 085°52'0 0.0
2017-Jul-22 07:00N 45°58' W 085°52'0 0.0
2017-Jul-22 06:30N 45°58' W 085°52'0 0.0
2017-Jul-22 05:54N 45°58' W 085°52'0 0.0
2017-Jul-22 05:27N 45°58' W 085°52'0 0.0
2017-Jul-22 05:00N 45°58' W 085°52'0 0.6
2017-Jul-22 04:27N 45°58' W 085°52'1 2.6
2017-Jul-22 04:00N 45°57' W 085°53'2 3.0
2017-Jul-22 03:30N 45°55' W 085°53'3 5.6
2017-Jul-22 03:00N 45°52' W 085°54'4 8.0
2017-Jul-22 02:30N 45°49' W 085°56'1112.9
2017-Jul-22 01:40N 45°39' W 086°02'212.8
2017-Jul-22 01:30N 45°37' W 086°03'612.8
2017-Jul-22 01:00N 45°31' W 086°06'1312.8
2017-Jul-22 00:00N 45°18' W 086°06'11514.3 310 / 101016.9 22.2
2017-Jul-21 16:00N 43°24' W 086°24'36 1.7 010 / 41017.6 23.8
2017-Jul-20 19:00N 44°00' W 086°18'19 6.2 240 / 101015.9 27.2
2017-Jul-20 16:00N 44°18' W 086°12'3255.1 270 / 201016.5 21.6
2017-Jul-20 15:25N 44°49' W 086°20'612.7
2017-Jul-20 14:56N 44°55' W 086°18'1112.3
2017-Jul-20 14:00N 45°06' W 086°15'812.2
2017-Jul-20 13:21N 45°14' W 086°13'410.3
2017-Jul-20 13:00N 45°18' W 086°12'910.1
2017-Jul-20 12:04N 45°27' W 086°08'112.2
2017-Jul-20 11:57N 45°28' W 086°08'812.1
2017-Jul-20 11:17N 45°36' W 086°05'312.0
2017-Jul-20 11:00N 45°39' W 086°03'612.0
2017-Jul-20 10:30N 45°44' W 085°59'712.2
2017-Jul-20 09:57N 45°50' W 085°55'511.9
2017-Jul-20 09:30N 45°56' W 085°53'3 4.9
2017-Jul-20 09:00N 45°58' W 085°52'0 0.1
2017-Jul-20 08:30N 45°58' W 085°52'0 0.1
2017-Jul-20 08:00N 45°58' W 085°52'0 0.0
2017-Jul-20 07:30N 45°58' W 085°52'0 0.0
2017-Jul-20 07:00N 45°58' W 085°52'0 0.1
2017-Jul-20 06:30N 45°58' W 085°52'0 0.0
2017-Jul-20 06:00N 45°58' W 085°52'0 0.0
2017-Jul-20 05:30N 45°58' W 085°52'0 0.0
2017-Jul-20 05:00N 45°58' W 085°52'0 0.0
2017-Jul-20 04:30N 45°58' W 085°52'0 0.0
2017-Jul-20 04:00N 45°58' W 085°52'0 0.0
2017-Jul-20 03:30N 45°58' W 085°52'0 0.0
2017-Jul-20 03:00N 45°58' W 085°52'0 0.0
2017-Jul-20 02:30N 45°58' W 085°52'0 0.0
2017-Jul-20 02:00N 45°58' W 085°52'0 0.0
2017-Jul-20 01:30N 45°58' W 085°52'0 0.1
2017-Jul-20 00:59N 45°58' W 085°52'0 0.0
2017-Jul-20 00:30N 45°58' W 085°52'0 0.0
2017-Jul-20 00:00N 45°58' W 085°52'0 0.0
2017-Jul-19 23:30N 45°58' W 085°52'0 0.1
2017-Jul-19 23:00N 45°58' W 085°52'2 3.0
2017-Jul-19 22:30N 45°57' W 085°53'3 6.5
2017-Jul-19 22:00N 45°54' W 085°49'612.1
2017-Jul-19 21:30N 45°54' W 085°41'612.0
2017-Jul-19 21:00N 45°54' W 085°32'612.1
2017-Jul-19 20:30N 45°53' W 085°24'612.4
2017-Jul-19 20:00N 45°53' W 085°15'612.2
2017-Jul-19 19:30N 45°52' W 085°06'612.2
2017-Jul-19 19:00N 45°51' W 084°57'612.2
2017-Jul-19 18:30N 45°50' W 084°49'611.8
2017-Jul-19 18:00N 45°48' W 084°40'277995.6
2017-Jul-19 18:00N 45°24' W 084°24'2244.7 230 / 211022.0 20.5
2017-Jul-19 17:30N 45°45' W 084°33'612.1
2017-Jul-19 17:00N 45°42' W 084°25'611.8
2017-Jul-19 16:30N 45°41' W 084°17'712.8
2017-Jul-19 15:56N 45°42' W 084°07'512.7
2017-Jul-19 15:30N 45°42' W 083°59'612.6
2017-Jul-19 15:00N 45°42' W 083°50'612.7
2017-Jul-19 14:30N 45°40' W 083°42'612.8
2017-Jul-19 14:00N 45°37' W 083°33'713.0
2017-Jul-19 13:30N 45°34' W 083°25'13 0.9
2017-Jul-18 23:25N 45°21' W 083°24'512.2
2017-Jul-18 23:00N 45°24' W 083°29'612.2
2017-Jul-18 22:30N 45°27' W 083°37'612.3
2017-Jul-18 22:00N 45°29' W 083°45'612.1
2017-Jul-18 21:30N 45°32' W 083°53'612.0
2017-Jul-18 21:00N 45°35' W 084°00'612.1
2017-Jul-18 20:29N 45°38' W 084°08'612.6
2017-Jul-18 19:59N 45°41' W 084°16'612.1
2017-Jul-18 19:29N 45°42' W 084°25'612.6
2017-Jul-18 19:00N 45°44' W 084°33'612.9
2017-Jul-18 18:30N 45°48' W 084°40'612.6
2017-Jul-18 18:00N 45°49' W 084°49'612.8
2017-Jul-18 17:30N 45°49' W 084°58'612.5
2017-Jul-18 17:00N 45°50' W 085°07'510.7
2017-Jul-18 16:30N 45°45' W 085°10'612.7
2017-Jul-18 16:00N 45°39' W 085°15'612.8
2017-Jul-18 15:30N 45°34' W 085°21'612.9
2017-Jul-18 15:00N 45°29' W 085°26'1312.8
2017-Jul-18 14:00N 45°19' W 085°37'612.4
2017-Jul-18 13:30N 45°14' W 085°42'612.5
2017-Jul-18 13:00N 45°09' W 085°48'612.6
2017-Jul-18 12:30N 45°04' W 085°53'612.4
2017-Jul-18 12:00N 44°59' W 085°59'612.6
2017-Jul-18 11:30N 44°57' W 086°07'612.0
2017-Jul-18 11:00N 44°52' W 086°13'612.6
2017-Jul-18 10:30N 44°47' W 086°18'8315.1
2017-Jul-18 05:00N 43°24' W 086°24'   200 / 31020.9 18.3
2017-Jul-15 19:54N 45°25' W 086°11'511.8
2017-Jul-15 19:30N 45°29' W 086°10'612.0
2017-Jul-15 19:00N 45°35' W 086°08'181229.5
2017-Jul-15 19:00N 45°18' W 086°00'2347.7 250 / 191019.2 22.7
2017-Jul-15 18:30N 45°41' W 086°06'611.6
2017-Jul-15 18:00N 45°44' W 085°59'201300.8
2017-Jul-15 18:00N 45°24' W 086°00'2347.5 240 / 191019.2 18.8
2017-Jul-15 17:30N 45°46' W 085°52'612.0
2017-Jul-15 17:00N 45°49' W 085°45'612.0
2017-Jul-15 16:30N 45°52' W 085°37'611.6
2017-Jul-15 16:00N 45°54' W 085°29'612.0
2017-Jul-15 15:30N 45°53' W 085°20'612.1
2017-Jul-15 15:00N 45°52' W 085°12'1212.0
2017-Jul-15 14:00N 45°50' W 084°55'611.8
2017-Jul-15 13:30N 45°49' W 084°46'611.6
2017-Jul-15 13:00N 45°47' W 084°39'611.9
2017-Jul-15 12:30N 45°44' W 084°31'611.7
2017-Jul-15 12:00N 45°42' W 084°24'611.3
2017-Jul-15 11:26N 45°40' W 084°15'511.5
2017-Jul-15 11:00N 45°38' W 084°08'612.1
2017-Jul-15 10:30N 45°35' W 084°01'612.6
2017-Jul-15 10:00N 45°32' W 083°53'612.4
2017-Jul-15 09:30N 45°27' W 083°48'3 5.4
2017-Jul-15 09:00N 45°25' W 083°47'0 0.0
2017-Jul-15 08:30N 45°25' W 083°47'0 0.0
2017-Jul-15 08:00N 45°25' W 083°47'0 0.0
2017-Jul-15 07:30N 45°25' W 083°47'0 0.0
2017-Jul-15 07:00N 45°25' W 083°47'0 0.0
2017-Jul-15 06:30N 45°25' W 083°47'0 0.0
2017-Jul-15 06:00N 45°25' W 083°47'0 0.0
2017-Jul-15 05:30N 45°25' W 083°47'0 0.0
2017-Jul-15 05:00N 45°25' W 083°47'0 0.0
2017-Jul-15 04:30N 45°25' W 083°47'0 0.0
2017-Jul-15 04:00N 45°25' W 083°47'0 0.0
2017-Jul-15 03:30N 45°25' W 083°47'0 0.0
2017-Jul-15 03:00N 45°25' W 083°47'0 0.0
2017-Jul-15 02:30N 45°25' W 083°47'0 0.0
2017-Jul-15 02:00N 45°25' W 083°47'0 0.0
2017-Jul-15 01:30N 45°25' W 083°47'0 0.0
2017-Jul-15 01:00N 45°25' W 083°47'0 0.0
2017-Jul-15 00:30N 45°25' W 083°47'0 0.0
2017-Jul-15 00:00N 45°25' W 083°47'0 0.0
2017-Jul-14 23:30N 45°25' W 083°47'0 0.0
2017-Jul-14 23:00N 45°25' W 083°47'0 0.0
2017-Jul-14 22:30N 45°25' W 083°47'0 0.0
2017-Jul-14 22:00N 45°25' W 083°47'0 0.9
2017-Jul-14 21:30N 45°25' W 083°47'2 4.8
2017-Jul-14 21:00N 45°26' W 083°43'612.4
2017-Jul-14 20:30N 45°24' W 083°35'  
Track history (hours):
 
Tides and Currents Weather Stations Pressure Air Temp Water Temp Dewpoint Dewpoint Depression Visibility Wind Speed Wind Dir Waves Ship Positions

Calumet

Owner: Grand River Navigation Company, Traverse City, MI. More information available from US FCC via Universal Licensing System and Coast Guard Vessel Documentation Center.

Last reported at 2017-Jul-23 00:20 UTC. Time now 2017-Jul-25 10:37 UTC.
Position N 45°24' W 083°29'.

Length 192 m; draft 25.5 m.

Type: Cargo ship. MMSI: 367132630.

Date/timePositionNaut miles runAvg speedWind from/ knotsBaromVisibWave heightAir tempDewpointWater temp
2017-Jul-23 00:20N 45°24' W 083°29'412.0
2017-Jul-23 00:00N 45°26' W 083°34'612.0
2017-Jul-22 23:30N 45°28' W 083°42'611.8
2017-Jul-22 23:00N 45°31' W 083°50'611.8
2017-Jul-22 22:28N 45°34' W 083°58'611.8
2017-Jul-22 21:58N 45°37' W 084°05'611.8
2017-Jul-22 21:28N 45°39' W 084°13'510.9
2017-Jul-22 21:00N 45°41' W 084°20'611.5
2017-Jul-22 20:29N 45°42' W 084°28'511.6
2017-Jul-22 20:00N 45°45' W 084°35'611.8
2017-Jul-22 19:30N 45°48' W 084°42'611.6
2017-Jul-22 19:00N 45°50' W 084°50'611.7
2017-Jul-22 18:30N 45°50' W 084°58'611.9
2017-Jul-22 18:00N 45°51' W 085°06'611.8
2017-Jul-22 17:29N 45°52' W 085°15'611.8
2017-Jul-22 16:59N 45°53' W 085°24'811.8
2017-Jul-22 16:19N 45°54' W 085°35'2782.2
2017-Jul-22 16:00N 45°30' W 085°18'3459.9 060 / 51012.5 20.5
2017-Jul-22 15:26N 45°56' W 085°50'3 6.3
2017-Jul-22 15:00N 45°57' W 085°53'1 0.8
2017-Jul-22 14:00N 45°58' W 085°52'0 0.0
2017-Jul-22 13:30N 45°58' W 085°52'0 0.0
2017-Jul-22 12:59N 45°58' W 085°52'0 0.0
2017-Jul-22 12:26N 45°58' W 085°52'0 0.0
2017-Jul-22 12:00N 45°58' W 085°52'0 0.1
2017-Jul-22 11:30N 45°58' W 085°52'0 0.0
2017-Jul-22 11:00N 45°58' W 085°52'0 0.0
2017-Jul-22 10:20N 45°58' W 085°52'0 0.0
2017-Jul-22 09:53N 45°58' W 085°52'0 0.0
2017-Jul-22 09:30N 45°58' W 085°52'0 0.0
2017-Jul-22 09:00N 45°58' W 085°52'0 0.0
2017-Jul-22 08:30N 45°58' W 085°52'0 0.0
2017-Jul-22 08:00N 45°58' W 085°52'0 0.0
2017-Jul-22 07:30N 45°58' W 085°52'0 0.0
2017-Jul-22 07:00N 45°58' W 085°52'0 0.0
2017-Jul-22 06:30N 45°58' W 085°52'0 0.0
2017-Jul-22 05:54N 45°58' W 085°52'0 0.0
2017-Jul-22 05:27N 45°58' W 085°52'0 0.0
2017-Jul-22 05:00N 45°58' W 085°52'0 0.6
2017-Jul-22 04:27N 45°58' W 085°52'1 2.6
2017-Jul-22 04:00N 45°57' W 085°53'2 3.0
2017-Jul-22 03:30N 45°55' W 085°53'3 5.6
2017-Jul-22 03:00N 45°52' W 085°54'4 8.0
2017-Jul-22 02:30N 45°49' W 085°56'1112.9
2017-Jul-22 01:40N 45°39' W 086°02'212.8
2017-Jul-22 01:30N 45°37' W 086°03'612.8
2017-Jul-22 01:00N 45°31' W 086°06'1312.8
2017-Jul-22 00:00N 45°18' W 086°06'11514.3 310 / 101016.9 22.2
2017-Jul-21 16:00N 43°24' W 086°24'36 1.7 010 / 41017.6 23.8
2017-Jul-20 19:00N 44°00' W 086°18'19 6.2 240 / 101015.9 27.2
2017-Jul-20 16:00N 44°18' W 086°12'3255.1 270 / 201016.5 21.6
2017-Jul-20 15:25N 44°49' W 086°20'612.7
2017-Jul-20 14:56N 44°55' W 086°18'1112.3
2017-Jul-20 14:00N 45°06' W 086°15'812.2
2017-Jul-20 13:21N 45°14' W 086°13'410.3
2017-Jul-20 13:00N 45°18' W 086°12'910.1
2017-Jul-20 12:04N 45°27' W 086°08'112.2
2017-Jul-20 11:57N 45°28' W 086°08'812.1
2017-Jul-20 11:17N 45°36' W 086°05'312.0
2017-Jul-20 11:00N 45°39' W 086°03'612.0
2017-Jul-20 10:30N 45°44' W 085°59'712.2
2017-Jul-20 09:57N 45°50' W 085°55'511.9
2017-Jul-20 09:30N 45°56' W 085°53'3 4.9
2017-Jul-20 09:00N 45°58' W 085°52'0 0.1
2017-Jul-20 08:30N 45°58' W 085°52'0 0.1
2017-Jul-20 08:00N 45°58' W 085°52'0 0.0
2017-Jul-20 07:30N 45°58' W 085°52'0 0.0
2017-Jul-20 07:00N 45°58' W 085°52'0 0.1
2017-Jul-20 06:30N 45°58' W 085°52'0 0.0
2017-Jul-20 06:00N 45°58' W 085°52'0 0.0
2017-Jul-20 05:30N 45°58' W 085°52'0 0.0
2017-Jul-20 05:00N 45°58' W 085°52'0 0.0
2017-Jul-20 04:30N 45°58' W 085°52'0 0.0
2017-Jul-20 04:00N 45°58' W 085°52'0 0.0
2017-Jul-20 03:30N 45°58' W 085°52'0 0.0
2017-Jul-20 03:00N 45°58' W 085°52'0 0.0
2017-Jul-20 02:30N 45°58' W 085°52'0 0.0
2017-Jul-20 02:00N 45°58' W 085°52'0 0.0
2017-Jul-20 01:30N 45°58' W 085°52'0 0.1
2017-Jul-20 00:59N 45°58' W 085°52'0 0.0
2017-Jul-20 00:30N 45°58' W 085°52'0 0.0
2017-Jul-20 00:00N 45°58' W 085°52'0 0.0
2017-Jul-19 23:30N 45°58' W 085°52'0 0.1
2017-Jul-19 23:00N 45°58' W 085°52'2 3.0
2017-Jul-19 22:30N 45°57' W 085°53'3 6.5
2017-Jul-19 22:00N 45°54' W 085°49'612.1
2017-Jul-19 21:30N 45°54' W 085°41'612.0
2017-Jul-19 21:00N 45°54' W 085°32'612.1
2017-Jul-19 20:30N 45°53' W 085°24'612.4
2017-Jul-19 20:00N 45°53' W 085°15'612.2
2017-Jul-19 19:30N 45°52' W 085°06'612.2
2017-Jul-19 19:00N 45°51' W 084°57'612.2
2017-Jul-19 18:30N 45°50' W 084°49'611.8
2017-Jul-19 18:00N 45°48' W 084°40'277995.6
2017-Jul-19 18:00N 45°24' W 084°24'2244.7 230 / 211022.0 20.5
2017-Jul-19 17:30N 45°45' W 084°33'612.1
2017-Jul-19 17:00N 45°42' W 084°25'611.8
2017-Jul-19 16:30N 45°41' W 084°17'712.8
2017-Jul-19 15:56N 45°42' W 084°07'512.7
2017-Jul-19 15:30N 45°42' W 083°59'612.6
2017-Jul-19 15:00N 45°42' W 083°50'612.7
2017-Jul-19 14:30N 45°40' W 083°42'612.8
2017-Jul-19 14:00N 45°37' W 083°33'713.0
2017-Jul-19 13:30N 45°34' W 083°25'13 0.9
2017-Jul-18 23:25N 45°21' W 083°24'512.2
2017-Jul-18 23:00N 45°24' W 083°29'612.2
2017-Jul-18 22:30N 45°27' W 083°37'612.3
2017-Jul-18 22:00N 45°29' W 083°45'612.1
2017-Jul-18 21:30N 45°32' W 083°53'612.0
2017-Jul-18 21:00N 45°35' W 084°00'612.1
2017-Jul-18 20:29N 45°38' W 084°08'612.6
2017-Jul-18 19:59N 45°41' W 084°16'612.1
2017-Jul-18 19:29N 45°42' W 084°25'612.6
2017-Jul-18 19:00N 45°44' W 084°33'612.9
2017-Jul-18 18:30N 45°48' W 084°40'612.6
2017-Jul-18 18:00N 45°49' W 084°49'612.8
2017-Jul-18 17:30N 45°49' W 084°58'612.5
2017-Jul-18 17:00N 45°50' W 085°07'510.7
2017-Jul-18 16:30N 45°45' W 085°10'612.7
2017-Jul-18 16:00N 45°39' W 085°15'612.8
2017-Jul-18 15:30N 45°34' W 085°21'612.9
2017-Jul-18 15:00N 45°29' W 085°26'1312.8
2017-Jul-18 14:00N 45°19' W 085°37'612.4
2017-Jul-18 13:30N 45°14' W 085°42'612.5
2017-Jul-18 13:00N 45°09' W 085°48'612.6
2017-Jul-18 12:30N 45°04' W 085°53'612.4
2017-Jul-18 12:00N 44°59' W 085°59'612.6
2017-Jul-18 11:30N 44°57' W 086°07'612.0
2017-Jul-18 11:00N 44°52' W 086°13'612.6
2017-Jul-18 10:30N 44°47' W 086°18'8315.1
2017-Jul-18 05:00N 43°24' W 086°24'   200 / 31020.9 18.3
2017-Jul-15 19:54N 45°25' W 086°11'511.8
2017-Jul-15 19:30N 45°29' W 086°10'612.0
2017-Jul-15 19:00N 45°35' W 086°08'181229.5
2017-Jul-15 19:00N 45°18' W 086°00'2347.7 250 / 191019.2 22.7
2017-Jul-15 18:30N 45°41' W 086°06'611.6
2017-Jul-15 18:00N 45°44' W 085°59'201300.8
2017-Jul-15 18:00N 45°24' W 086°00'2347.5 240 / 191019.2 18.8
2017-Jul-15 17:30N 45°46' W 085°52'612.0
2017-Jul-15 17:00N 45°49' W 085°45'612.0
2017-Jul-15 16:30N 45°52' W 085°37'611.6
2017-Jul-15 16:00N 45°54' W 085°29'612.0
2017-Jul-15 15:30N 45°53' W 085°20'612.1
2017-Jul-15 15:00N 45°52' W 085°12'1212.0
2017-Jul-15 14:00N 45°50' W 084°55'611.8
2017-Jul-15 13:30N 45°49' W 084°46'611.6
2017-Jul-15 13:00N 45°47' W 084°39'611.9
2017-Jul-15 12:30N 45°44' W 084°31'611.7
2017-Jul-15 12:00N 45°42' W 084°24'611.3
2017-Jul-15 11:26N 45°40' W 084°15'511.5
2017-Jul-15 11:00N 45°38' W 084°08'612.1
2017-Jul-15 10:30N 45°35' W 084°01'612.6
2017-Jul-15 10:00N 45°32' W 083°53'612.4
2017-Jul-15 09:30N 45°27' W 083°48'3 5.4
2017-Jul-15 09:00N 45°25' W 083°47'0 0.0
2017-Jul-15 08:30N 45°25' W 083°47'0 0.0
2017-Jul-15 08:00N 45°25' W 083°47'0 0.0
2017-Jul-15 07:30N 45°25' W 083°47'0 0.0
2017-Jul-15 07:00N 45°25' W 083°47'0 0.0
2017-Jul-15 06:30N 45°25' W 083°47'0 0.0
2017-Jul-15 06:00N 45°25' W 083°47'0 0.0
2017-Jul-15 05:30N 45°25' W 083°47'0 0.0
2017-Jul-15 05:00N 45°25' W 083°47'0 0.0
2017-Jul-15 04:30N 45°25' W 083°47'0 0.0
2017-Jul-15 04:00N 45°25' W 083°47'0 0.0
2017-Jul-15 03:30N 45°25' W 083°47'0 0.0
2017-Jul-15 03:00N 45°25' W 083°47'0 0.0
2017-Jul-15 02:30N 45°25' W 083°47'0 0.0
2017-Jul-15 02:00N 45°25' W 083°47'0 0.0
2017-Jul-15 01:30N 45°25' W 083°47'0 0.0
2017-Jul-15 01:00N 45°25' W 083°47'0 0.0
2017-Jul-15 00:30N 45°25' W 083°47'0 0.0
2017-Jul-15 00:00N 45°25' W 083°47'0 0.0
2017-Jul-14 23:30N 45°25' W 083°47'0 0.0
2017-Jul-14 23:00N 45°25' W 083°47'0 0.0
2017-Jul-14 22:30N 45°25' W 083°47'0 0.0
2017-Jul-14 22:00N 45°25' W 083°47'0 0.9
2017-Jul-14 21:30N 45°25' W 083°47'2 4.8
2017-Jul-14 21:00N 45°26' W 083°43'612.4
2017-Jul-14 20:30N 45°24' W 083°35'  

Dump ship's entire track history